sensor_id;sensor_type;location;lat;lon;timestamp;P1;durP1;ratioP1;P2;durP2;ratioP2
64199;SDS011;50516;52.272;5.136;2024-02-15T00:00:35;24.98;;;10.10;;
64199;SDS011;50516;52.272;5.136;2024-02-15T00:03:00;21.50;;;7.20;;
64199;SDS011;50516;52.272;5.136;2024-02-15T00:05:26;24.40;;;7.05;;
64199;SDS011;50516;52.272;5.136;2024-02-15T00:07:51;25.58;;;6.93;;
64199;SDS011;50516;52.272;5.136;2024-02-15T00:10:16;22.35;;;7.22;;
64199;SDS011;50516;52.272;5.136;2024-02-15T00:12:42;18.70;;;7.00;;
64199;SDS011;50516;52.272;5.136;2024-02-15T00:15:07;19.45;;;6.13;;
64199;SDS011;50516;52.272;5.136;2024-02-15T00:17:33;23.10;;;7.32;;
64199;SDS011;50516;52.272;5.136;2024-02-15T00:20:00;18.02;;;6.22;;
64199;SDS011;50516;52.272;5.136;2024-02-15T00:22:28;32.00;;;8.18;;
64199;SDS011;50516;52.272;5.136;2024-02-15T00:24:54;20.38;;;7.68;;
64199;SDS011;50516;52.272;5.136;2024-02-15T00:27:20;20.20;;;8.38;;
64199;SDS011;50516;52.272;5.136;2024-02-15T00:29:46;19.95;;;7.45;;
64199;SDS011;50516;52.272;5.136;2024-02-15T00:32:11;19.35;;;8.15;;
64199;SDS011;50516;52.272;5.136;2024-02-15T00:34:37;16.13;;;8.10;;
64199;SDS011;50516;52.272;5.136;2024-02-15T00:37:05;22.65;;;7.93;;
64199;SDS011;50516;52.272;5.136;2024-02-15T00:39:30;23.38;;;9.48;;
64199;SDS011;50516;52.272;5.136;2024-02-15T00:41:56;23.98;;;8.82;;
64199;SDS011;50516;52.272;5.136;2024-02-15T00:44:23;30.55;;;10.27;;
64199;SDS011;50516;52.272;5.136;2024-02-15T00:46:48;21.98;;;9.82;;
64199;SDS011;50516;52.272;5.136;2024-02-15T00:49:13;25.45;;;8.88;;
64199;SDS011;50516;52.272;5.136;2024-02-15T00:51:39;26.02;;;9.27;;
64199;SDS011;50516;52.272;5.136;2024-02-15T00:54:04;17.50;;;8.95;;
64199;SDS011;50516;52.272;5.136;2024-02-15T00:56:30;21.92;;;9.35;;
64199;SDS011;50516;52.272;5.136;2024-02-15T00:58:56;23.42;;;8.73;;
64199;SDS011;50516;52.272;5.136;2024-02-15T01:01:22;15.18;;;8.10;;
64199;SDS011;50516;52.272;5.136;2024-02-15T01:03:47;21.15;;;8.98;;
64199;SDS011;50516;52.272;5.136;2024-02-15T01:06:13;23.58;;;8.07;;
64199;SDS011;50516;52.272;5.136;2024-02-15T01:08:38;22.00;;;8.38;;
64199;SDS011;50516;52.272;5.136;2024-02-15T01:11:04;19.77;;;8.07;;
64199;SDS011;50516;52.272;5.136;2024-02-15T01:13:29;18.30;;;7.97;;
64199;SDS011;50516;52.272;5.136;2024-02-15T01:15:55;15.05;;;7.75;;
64199;SDS011;50516;52.272;5.136;2024-02-15T01:18:20;16.92;;;8.27;;
64199;SDS011;50516;52.272;5.136;2024-02-15T01:20:46;15.98;;;7.43;;
64199;SDS011;50516;52.272;5.136;2024-02-15T01:23:11;17.33;;;7.28;;
64199;SDS011;50516;52.272;5.136;2024-02-15T01:25:37;13.95;;;6.95;;
64199;SDS011;50516;52.272;5.136;2024-02-15T01:28:02;12.77;;;6.50;;
64199;SDS011;50516;52.272;5.136;2024-02-15T01:30:28;20.60;;;6.93;;
64199;SDS011;50516;52.272;5.136;2024-02-15T01:32:56;12.35;;;6.70;;
64199;SDS011;50516;52.272;5.136;2024-02-15T01:35:22;19.67;;;7.78;;
64199;SDS011;50516;52.272;5.136;2024-02-15T01:37:47;16.98;;;7.15;;
64199;SDS011;50516;52.272;5.136;2024-02-15T01:40:13;14.95;;;6.30;;
64199;SDS011;50516;52.272;5.136;2024-02-15T01:42:38;14.93;;;7.28;;
64199;SDS011;50516;52.272;5.136;2024-02-15T01:45:05;16.58;;;7.40;;
64199;SDS011;50516;52.272;5.136;2024-02-15T01:47:31;19.42;;;7.40;;
64199;SDS011;50516;52.272;5.136;2024-02-15T01:49:56;16.92;;;7.18;;
64199;SDS011;50516;52.272;5.136;2024-02-15T01:52:22;12.23;;;6.97;;
64199;SDS011;50516;52.272;5.136;2024-02-15T01:54:48;17.67;;;8.95;;
64199;SDS011;50516;52.272;5.136;2024-02-15T01:57:16;16.20;;;8.15;;
64199;SDS011;50516;52.272;5.136;2024-02-15T01:59:41;18.58;;;8.27;;
64199;SDS011;50516;52.272;5.136;2024-02-15T02:02:08;20.10;;;9.13;;
64199;SDS011;50516;52.272;5.136;2024-02-15T02:04:38;16.33;;;8.82;;
64199;SDS011;50516;52.272;5.136;2024-02-15T02:07:04;14.50;;;8.90;;
64199;SDS011;50516;52.272;5.136;2024-02-15T02:09:29;18.98;;;10.00;;
64199;SDS011;50516;52.272;5.136;2024-02-15T02:11:54;22.15;;;9.27;;
64199;SDS011;50516;52.272;5.136;2024-02-15T02:14:20;16.70;;;8.63;;
64199;SDS011;50516;52.272;5.136;2024-02-15T02:16:45;18.38;;;10.48;;
64199;SDS011;50516;52.272;5.136;2024-02-15T02:19:11;18.70;;;10.73;;
64199;SDS011;50516;52.272;5.136;2024-02-15T02:21:37;16.55;;;10.32;;
64199;SDS011;50516;52.272;5.136;2024-02-15T02:24:04;17.90;;;10.35;;
64199;SDS011;50516;52.272;5.136;2024-02-15T02:26:38;15.85;;;10.60;;
64199;SDS011;50516;52.272;5.136;2024-02-15T02:29:03;19.92;;;10.23;;
64199;SDS011;50516;52.272;5.136;2024-02-15T02:31:35;18.52;;;12.45;;
64199;SDS011;50516;52.272;5.136;2024-02-15T02:34:00;19.48;;;10.98;;
64199;SDS011;50516;52.272;5.136;2024-02-15T02:36:26;22.35;;;10.88;;
64199;SDS011;50516;52.272;5.136;2024-02-15T02:38:52;19.55;;;11.02;;
64199;SDS011;50516;52.272;5.136;2024-02-15T02:41:17;17.85;;;11.57;;
64199;SDS011;50516;52.272;5.136;2024-02-15T02:43:44;21.88;;;12.18;;
64199;SDS011;50516;52.272;5.136;2024-02-15T02:46:10;16.45;;;11.07;;
64199;SDS011;50516;52.272;5.136;2024-02-15T02:48:37;18.63;;;11.23;;
64199;SDS011;50516;52.272;5.136;2024-02-15T02:51:02;23.40;;;11.65;;
64199;SDS011;50516;52.272;5.136;2024-02-15T02:53:28;24.67;;;12.20;;
64199;SDS011;50516;52.272;5.136;2024-02-15T02:55:54;26.90;;;12.55;;
64199;SDS011;50516;52.272;5.136;2024-02-15T02:58:21;24.10;;;11.00;;
64199;SDS011;50516;52.272;5.136;2024-02-15T03:00:46;19.33;;;11.43;;
64199;SDS011;50516;52.272;5.136;2024-02-15T03:03:12;21.08;;;11.60;;
64199;SDS011;50516;52.272;5.136;2024-02-15T03:05:37;24.00;;;12.18;;
64199;SDS011;50516;52.272;5.136;2024-02-15T03:08:05;20.65;;;11.90;;
64199;SDS011;50516;52.272;5.136;2024-02-15T03:10:30;18.27;;;11.73;;
64199;SDS011;50516;52.272;5.136;2024-02-15T03:12:56;17.77;;;11.27;;
64199;SDS011;50516;52.272;5.136;2024-02-15T03:15:21;20.35;;;11.48;;
64199;SDS011;50516;52.272;5.136;2024-02-15T03:17:48;23.38;;;11.98;;
64199;SDS011;50516;52.272;5.136;2024-02-15T03:20:13;25.85;;;11.77;;
64199;SDS011;50516;52.272;5.136;2024-02-15T03:22:54;24.40;;;11.98;;
64199;SDS011;50516;52.272;5.136;2024-02-15T03:25:25;22.35;;;11.90;;
64199;SDS011;50516;52.272;5.136;2024-02-15T03:27:54;21.55;;;11.35;;
64199;SDS011;50516;52.272;5.136;2024-02-15T03:30:24;20.77;;;12.45;;
64199;SDS011;50516;52.272;5.136;2024-02-15T03:32:51;21.60;;;11.48;;
64199;SDS011;50516;52.272;5.136;2024-02-15T03:35:17;17.80;;;11.27;;
64199;SDS011;50516;52.272;5.136;2024-02-15T03:37:43;17.38;;;11.10;;
64199;SDS011;50516;52.272;5.136;2024-02-15T03:40:09;18.15;;;11.68;;
64199;SDS011;50516;52.272;5.136;2024-02-15T03:42:35;17.60;;;11.77;;
64199;SDS011;50516;52.272;5.136;2024-02-15T03:45:03;25.30;;;12.48;;
64199;SDS011;50516;52.272;5.136;2024-02-15T03:47:40;20.17;;;11.40;;
64199;SDS011;50516;52.272;5.136;2024-02-15T03:50:05;22.50;;;11.05;;
64199;SDS011;50516;52.272;5.136;2024-02-15T03:52:34;21.42;;;11.27;;
64199;SDS011;50516;52.272;5.136;2024-02-15T03:55:00;15.38;;;10.43;;
64199;SDS011;50516;52.272;5.136;2024-02-15T03:57:27;16.38;;;11.50;;
64199;SDS011;50516;52.272;5.136;2024-02-15T03:59:53;17.25;;;10.13;;
64199;SDS011;50516;52.272;5.136;2024-02-15T04:02:19;25.80;;;11.38;;
64199;SDS011;50516;52.272;5.136;2024-02-15T04:04:45;17.55;;;10.43;;
64199;SDS011;50516;52.272;5.136;2024-02-15T04:07:15;18.10;;;9.77;;
64199;SDS011;50516;52.272;5.136;2024-02-15T04:09:41;24.05;;;9.68;;
64199;SDS011;50516;52.272;5.136;2024-02-15T04:12:07;19.60;;;10.50;;
64199;SDS011;50516;52.272;5.136;2024-02-15T04:14:33;19.10;;;9.60;;
64199;SDS011;50516;52.272;5.136;2024-02-15T04:17:03;19.05;;;9.63;;
64199;SDS011;50516;52.272;5.136;2024-02-15T04:19:29;21.40;;;9.93;;
64199;SDS011;50516;52.272;5.136;2024-02-15T04:21:55;22.08;;;11.52;;
64199;SDS011;50516;52.272;5.136;2024-02-15T04:24:21;20.95;;;9.52;;
64199;SDS011;50516;52.272;5.136;2024-02-15T04:26:47;22.92;;;10.40;;
64199;SDS011;50516;52.272;5.136;2024-02-15T04:29:13;23.20;;;9.68;;
64199;SDS011;50516;52.272;5.136;2024-02-15T04:31:39;16.38;;;10.13;;
64199;SDS011;50516;52.272;5.136;2024-02-15T04:34:05;18.73;;;9.27;;
64199;SDS011;50516;52.272;5.136;2024-02-15T04:36:31;23.30;;;10.05;;
64199;SDS011;50516;52.272;5.136;2024-02-15T04:38:59;19.35;;;10.60;;
64199;SDS011;50516;52.272;5.136;2024-02-15T04:41:27;17.88;;;9.70;;
64199;SDS011;50516;52.272;5.136;2024-02-15T04:43:53;20.92;;;9.05;;
64199;SDS011;50516;52.272;5.136;2024-02-15T04:46:19;19.10;;;9.45;;
64199;SDS011;50516;52.272;5.136;2024-02-15T04:48:47;22.02;;;10.65;;
64199;SDS011;50516;52.272;5.136;2024-02-15T04:51:16;20.42;;;9.80;;
64199;SDS011;50516;52.272;5.136;2024-02-15T04:53:44;19.38;;;9.30;;
64199;SDS011;50516;52.272;5.136;2024-02-15T04:56:11;22.73;;;11.57;;
64199;SDS011;50516;52.272;5.136;2024-02-15T04:58:41;17.35;;;10.40;;
64199;SDS011;50516;52.272;5.136;2024-02-15T05:01:13;18.88;;;10.93;;
64199;SDS011;50516;52.272;5.136;2024-02-15T05:03:42;20.65;;;10.32;;
64199;SDS011;50516;52.272;5.136;2024-02-15T05:06:08;23.77;;;10.65;;
64199;SDS011;50516;52.272;5.136;2024-02-15T05:08:34;21.10;;;11.32;;
64199;SDS011;50516;52.272;5.136;2024-02-15T05:11:07;18.50;;;10.23;;
64199;SDS011;50516;52.272;5.136;2024-02-15T05:13:43;19.40;;;10.82;;
64199;SDS011;50516;52.272;5.136;2024-02-15T05:16:09;21.40;;;10.85;;
64199;SDS011;50516;52.272;5.136;2024-02-15T05:18:34;22.45;;;12.00;;
64199;SDS011;50516;52.272;5.136;2024-02-15T05:21:01;21.63;;;11.05;;
64199;SDS011;50516;52.272;5.136;2024-02-15T05:23:27;21.25;;;13.27;;
64199;SDS011;50516;52.272;5.136;2024-02-15T05:25:52;20.92;;;11.93;;
64199;SDS011;50516;52.272;5.136;2024-02-15T05:28:19;21.80;;;11.73;;
64199;SDS011;50516;52.272;5.136;2024-02-15T05:30:51;19.08;;;11.40;;
64199;SDS011;50516;52.272;5.136;2024-02-15T05:33:33;19.77;;;11.32;;
64199;SDS011;50516;52.272;5.136;2024-02-15T05:35:58;17.80;;;11.82;;
64199;SDS011;50516;52.272;5.136;2024-02-15T05:38:23;16.67;;;12.30;;
64199;SDS011;50516;52.272;5.136;2024-02-15T05:40:49;18.52;;;13.07;;
64199;SDS011;50516;52.272;5.136;2024-02-15T05:43:15;22.00;;;13.35;;
64199;SDS011;50516;52.272;5.136;2024-02-15T05:45:42;17.50;;;12.63;;
64199;SDS011;50516;52.272;5.136;2024-02-15T05:48:07;14.75;;;12.95;;
64199;SDS011;50516;52.272;5.136;2024-02-15T05:50:33;23.75;;;13.35;;
64199;SDS011;50516;52.272;5.136;2024-02-15T05:52:59;19.48;;;12.30;;
64199;SDS011;50516;52.272;5.136;2024-02-15T05:55:26;15.70;;;12.10;;
64199;SDS011;50516;52.272;5.136;2024-02-15T05:57:52;18.17;;;12.52;;
64199;SDS011;50516;52.272;5.136;2024-02-15T06:00:18;19.67;;;13.27;;
64199;SDS011;50516;52.272;5.136;2024-02-15T06:02:44;16.73;;;12.48;;
64199;SDS011;50516;52.272;5.136;2024-02-15T06:05:09;20.70;;;13.15;;
64199;SDS011;50516;52.272;5.136;2024-02-15T06:07:35;24.90;;;13.60;;
64199;SDS011;50516;52.272;5.136;2024-02-15T06:10:00;18.52;;;12.73;;
64199;SDS011;50516;52.272;5.136;2024-02-15T06:12:28;20.85;;;14.63;;
64199;SDS011;50516;52.272;5.136;2024-02-15T06:14:54;19.45;;;12.63;;
64199;SDS011;50516;52.272;5.136;2024-02-15T06:17:20;20.67;;;13.88;;
64199;SDS011;50516;52.272;5.136;2024-02-15T06:19:45;18.80;;;14.00;;
64199;SDS011;50516;52.272;5.136;2024-02-15T06:22:10;23.77;;;13.80;;
64199;SDS011;50516;52.272;5.136;2024-02-15T06:24:37;22.08;;;15.60;;
64199;SDS011;50516;52.272;5.136;2024-02-15T06:27:03;25.08;;;16.20;;
64199;SDS011;50516;52.272;5.136;2024-02-15T06:29:28;23.95;;;14.95;;
64199;SDS011;50516;52.272;5.136;2024-02-15T06:32:13;24.02;;;15.73;;
64199;SDS011;50516;52.272;5.136;2024-02-15T06:34:57;26.90;;;15.90;;
64199;SDS011;50516;52.272;5.136;2024-02-15T06:37:40;30.05;;;15.63;;
64199;SDS011;50516;52.272;5.136;2024-02-15T06:40:25;25.98;;;14.90;;
64199;SDS011;50516;52.272;5.136;2024-02-15T06:42:50;26.45;;;15.70;;
64199;SDS011;50516;52.272;5.136;2024-02-15T06:45:16;21.73;;;15.80;;
64199;SDS011;50516;52.272;5.136;2024-02-15T06:47:42;23.88;;;16.70;;
64199;SDS011;50516;52.272;5.136;2024-02-15T06:50:11;23.15;;;15.63;;
64199;SDS011;50516;52.272;5.136;2024-02-15T06:52:43;25.15;;;16.27;;
64199;SDS011;50516;52.272;5.136;2024-02-15T06:55:09;24.50;;;17.13;;
64199;SDS011;50516;52.272;5.136;2024-02-15T06:57:37;24.50;;;16.60;;
64199;SDS011;50516;52.272;5.136;2024-02-15T07:00:05;24.58;;;15.98;;
64199;SDS011;50516;52.272;5.136;2024-02-15T07:02:34;19.35;;;15.35;;
64199;SDS011;50516;52.272;5.136;2024-02-15T07:05:00;23.38;;;15.10;;
64199;SDS011;50516;52.272;5.136;2024-02-15T07:07:25;21.60;;;16.00;;
64199;SDS011;50516;52.272;5.136;2024-02-15T07:09:51;21.73;;;16.13;;
64199;SDS011;50516;52.272;5.136;2024-02-15T07:12:16;20.40;;;13.75;;
64199;SDS011;50516;52.272;5.136;2024-02-15T07:14:41;20.00;;;14.25;;
64199;SDS011;50516;52.272;5.136;2024-02-15T07:17:07;20.70;;;14.52;;
64199;SDS011;50516;52.272;5.136;2024-02-15T07:19:32;19.63;;;12.80;;
64199;SDS011;50516;52.272;5.136;2024-02-15T07:22:01;18.65;;;13.80;;
64199;SDS011;50516;52.272;5.136;2024-02-15T07:24:27;18.65;;;12.70;;
64199;SDS011;50516;52.272;5.136;2024-02-15T07:26:53;17.70;;;12.23;;
64199;SDS011;50516;52.272;5.136;2024-02-15T07:29:20;17.33;;;12.68;;
64199;SDS011;50516;52.272;5.136;2024-02-15T07:31:48;14.93;;;11.60;;
64199;SDS011;50516;52.272;5.136;2024-02-15T07:34:13;17.15;;;11.38;;
64199;SDS011;50516;52.272;5.136;2024-02-15T07:36:39;15.82;;;10.55;;
64199;SDS011;50516;52.272;5.136;2024-02-15T07:39:07;13.90;;;10.68;;
64199;SDS011;50516;52.272;5.136;2024-02-15T07:41:37;13.50;;;10.38;;
64199;SDS011;50516;52.272;5.136;2024-02-15T07:44:03;13.73;;;10.65;;
64199;SDS011;50516;52.272;5.136;2024-02-15T07:46:28;12.70;;;10.10;;
64199;SDS011;50516;52.272;5.136;2024-02-15T07:48:54;13.65;;;9.88;;
64199;SDS011;50516;52.272;5.136;2024-02-15T07:51:21;10.90;;;8.75;;
64199;SDS011;50516;52.272;5.136;2024-02-15T07:53:47;11.48;;;8.25;;
64199;SDS011;50516;52.272;5.136;2024-02-15T07:56:13;10.52;;;8.57;;
64199;SDS011;50516;52.272;5.136;2024-02-15T07:58:41;12.32;;;8.95;;
64199;SDS011;50516;52.272;5.136;2024-02-15T08:01:07;10.02;;;7.20;;
64199;SDS011;50516;52.272;5.136;2024-02-15T08:03:34;12.95;;;8.77;;
64199;SDS011;50516;52.272;5.136;2024-02-15T08:06:00;9.32;;;7.60;;
64199;SDS011;50516;52.272;5.136;2024-02-15T08:08:29;11.38;;;7.82;;
64199;SDS011;50516;52.272;5.136;2024-02-15T08:10:54;10.10;;;8.30;;
64199;SDS011;50516;52.272;5.136;2024-02-15T08:13:20;11.85;;;7.25;;
64199;SDS011;50516;52.272;5.136;2024-02-15T08:15:47;9.13;;;7.68;;
64199;SDS011;50516;52.272;5.136;2024-02-15T08:18:16;10.18;;;6.78;;
64199;SDS011;50516;52.272;5.136;2024-02-15T08:20:41;10.02;;;8.32;;
64199;SDS011;50516;52.272;5.136;2024-02-15T08:23:09;8.07;;;6.50;;
64199;SDS011;50516;52.272;5.136;2024-02-15T08:25:37;7.95;;;6.65;;
64199;SDS011;50516;52.272;5.136;2024-02-15T08:28:05;7.63;;;5.85;;
64199;SDS011;50516;52.272;5.136;2024-02-15T08:30:32;8.55;;;6.13;;
64199;SDS011;50516;52.272;5.136;2024-02-15T08:32:57;8.13;;;6.03;;
64199;SDS011;50516;52.272;5.136;2024-02-15T08:35:23;8.10;;;5.82;;
64199;SDS011;50516;52.272;5.136;2024-02-15T08:37:48;6.07;;;5.00;;
64199;SDS011;50516;52.272;5.136;2024-02-15T08:40:16;7.35;;;5.25;;
64199;SDS011;50516;52.272;5.136;2024-02-15T08:42:44;6.07;;;5.03;;
64199;SDS011;50516;52.272;5.136;2024-02-15T08:45:11;7.53;;;5.13;;
64199;SDS011;50516;52.272;5.136;2024-02-15T08:47:42;8.82;;;4.90;;
64199;SDS011;50516;52.272;5.136;2024-02-15T08:50:08;6.45;;;5.25;;
64199;SDS011;50516;52.272;5.136;2024-02-15T08:52:35;6.70;;;5.22;;
64199;SDS011;50516;52.272;5.136;2024-02-15T08:55:04;6.55;;;4.85;;
64199;SDS011;50516;52.272;5.136;2024-02-15T08:57:34;7.88;;;5.00;;
64199;SDS011;50516;52.272;5.136;2024-02-15T08:59:59;7.88;;;5.00;;
64199;SDS011;50516;52.272;5.136;2024-02-15T09:02:25;8.85;;;5.50;;
64199;SDS011;50516;52.272;5.136;2024-02-15T09:04:50;7.55;;;5.35;;
64199;SDS011;50516;52.272;5.136;2024-02-15T09:07:16;9.13;;;5.93;;
64199;SDS011;50516;52.272;5.136;2024-02-15T09:09:41;8.48;;;6.20;;
64199;SDS011;50516;52.272;5.136;2024-02-15T09:12:07;7.22;;;5.38;;
64199;SDS011;50516;52.272;5.136;2024-02-15T09:14:33;8.32;;;6.15;;
64199;SDS011;50516;52.272;5.136;2024-02-15T09:16:59;8.50;;;5.82;;
64199;SDS011;50516;52.272;5.136;2024-02-15T09:19:25;8.50;;;5.40;;
64199;SDS011;50516;52.272;5.136;2024-02-15T09:21:50;11.50;;;7.13;;
64199;SDS011;50516;52.272;5.136;2024-02-15T09:24:16;10.20;;;6.82;;
64199;SDS011;50516;52.272;5.136;2024-02-15T09:26:41;9.30;;;5.90;;
64199;SDS011;50516;52.272;5.136;2024-02-15T09:29:07;12.95;;;6.93;;
64199;SDS011;50516;52.272;5.136;2024-02-15T09:31:33;10.90;;;6.88;;
64199;SDS011;50516;52.272;5.136;2024-02-15T09:34:00;11.88;;;6.85;;
64199;SDS011;50516;52.272;5.136;2024-02-15T09:36:26;13.45;;;6.60;;
64199;SDS011;50516;52.272;5.136;2024-02-15T09:38:53;10.57;;;7.10;;
64199;SDS011;50516;52.272;5.136;2024-02-15T09:41:18;11.35;;;7.25;;
64199;SDS011;50516;52.272;5.136;2024-02-15T09:43:44;11.45;;;7.13;;
64199;SDS011;50516;52.272;5.136;2024-02-15T09:46:09;11.70;;;7.20;;
64199;SDS011;50516;52.272;5.136;2024-02-15T09:48:35;12.55;;;7.40;;
64199;SDS011;50516;52.272;5.136;2024-02-15T09:51:01;12.98;;;8.30;;
64199;SDS011;50516;52.272;5.136;2024-02-15T09:53:26;14.75;;;7.35;;
64199;SDS011;50516;52.272;5.136;2024-02-15T09:55:54;16.70;;;7.60;;
64199;SDS011;50516;52.272;5.136;2024-02-15T09:58:19;13.23;;;7.32;;
64199;SDS011;50516;52.272;5.136;2024-02-15T10:00:48;13.90;;;7.18;;
64199;SDS011;50516;52.272;5.136;2024-02-15T10:03:14;16.77;;;6.97;;
64199;SDS011;50516;52.272;5.136;2024-02-15T10:05:43;16.13;;;7.40;;
64199;SDS011;50516;52.272;5.136;2024-02-15T10:08:09;20.35;;;7.18;;
64199;SDS011;50516;52.272;5.136;2024-02-15T10:10:36;15.68;;;7.00;;
64199;SDS011;50516;52.272;5.136;2024-02-15T10:13:01;18.02;;;7.25;;
64199;SDS011;50516;52.272;5.136;2024-02-15T10:17:56;13.43;;;6.70;;
64199;SDS011;50516;52.272;5.136;2024-02-15T10:20:23;11.63;;;6.50;;
64199;SDS011;50516;52.272;5.136;2024-02-15T10:22:51;16.08;;;7.43;;
64199;SDS011;50516;52.272;5.136;2024-02-15T10:25:18;10.15;;;6.82;;
64199;SDS011;50516;52.272;5.136;2024-02-15T10:27:44;14.00;;;7.13;;
64199;SDS011;50516;52.272;5.136;2024-02-15T10:32:42;18.08;;;7.78;;
64199;SDS011;50516;52.272;5.136;2024-02-15T10:35:08;14.32;;;8.23;;
64199;SDS011;50516;52.272;5.136;2024-02-15T10:37:34;18.42;;;8.43;;
64199;SDS011;50516;52.272;5.136;2024-02-15T10:40:05;15.07;;;7.65;;
64199;SDS011;50516;52.272;5.136;2024-02-15T10:42:34;21.57;;;9.27;;
64199;SDS011;50516;52.272;5.136;2024-02-15T10:45:04;17.15;;;8.35;;
64199;SDS011;50516;52.272;5.136;2024-02-15T10:47:33;16.23;;;8.70;;
64199;SDS011;50516;52.272;5.136;2024-02-15T10:50:01;13.18;;;7.40;;
64199;SDS011;50516;52.272;5.136;2024-02-15T10:52:28;16.63;;;7.85;;
64199;SDS011;50516;52.272;5.136;2024-02-15T10:57:31;19.10;;;8.88;;
64199;SDS011;50516;52.272;5.136;2024-02-15T10:59:58;12.55;;;7.47;;
64199;SDS011;50516;52.272;5.136;2024-02-15T11:02:30;15.77;;;7.90;;
64199;SDS011;50516;52.272;5.136;2024-02-15T11:05:03;20.13;;;9.35;;
64199;SDS011;50516;52.272;5.136;2024-02-15T11:07:34;16.58;;;7.97;;
64199;SDS011;50516;52.272;5.136;2024-02-15T11:09:59;19.85;;;8.20;;
64199;SDS011;50516;52.272;5.136;2024-02-15T11:12:25;19.27;;;8.00;;
64199;SDS011;50516;52.272;5.136;2024-02-15T11:14:52;11.90;;;7.30;;
64199;SDS011;50516;52.272;5.136;2024-02-15T11:20:02;16.83;;;7.40;;
64199;SDS011;50516;52.272;5.136;2024-02-15T11:22:33;17.95;;;7.32;;
64199;SDS011;50516;52.272;5.136;2024-02-15T11:25:02;20.20;;;7.90;;
64199;SDS011;50516;52.272;5.136;2024-02-15T11:27:36;18.27;;;8.05;;
64199;SDS011;50516;52.272;5.136;2024-02-15T11:30:05;16.33;;;7.82;;
64199;SDS011;50516;52.272;5.136;2024-02-15T11:35:20;13.90;;;7.13;;
64199;SDS011;50516;52.272;5.136;2024-02-15T11:40:13;15.73;;;7.90;;
64199;SDS011;50516;52.272;5.136;2024-02-15T11:42:42;17.10;;;8.27;;
64199;SDS011;50516;52.272;5.136;2024-02-15T11:45:08;19.20;;;8.20;;
64199;SDS011;50516;52.272;5.136;2024-02-15T11:47:36;13.13;;;7.97;;
64199;SDS011;50516;52.272;5.136;2024-02-15T11:50:04;17.67;;;7.50;;
64199;SDS011;50516;52.272;5.136;2024-02-15T11:55:18;17.58;;;7.65;;
64199;SDS011;50516;52.272;5.136;2024-02-15T11:57:57;16.30;;;7.78;;
64199;SDS011;50516;52.272;5.136;2024-02-15T12:00:29;15.90;;;7.70;;
64199;SDS011;50516;52.272;5.136;2024-02-15T12:03:14;17.02;;;7.38;;
64199;SDS011;50516;52.272;5.136;2024-02-15T12:05:59;18.83;;;8.55;;
64199;SDS011;50516;52.272;5.136;2024-02-15T12:08:44;15.68;;;8.57;;
64199;SDS011;50516;52.272;5.136;2024-02-15T12:11:29;12.93;;;7.55;;
64199;SDS011;50516;52.272;5.136;2024-02-15T12:14:14;12.38;;;7.30;;
64199;SDS011;50516;52.272;5.136;2024-02-15T12:17:16;16.77;;;7.70;;
64199;SDS011;50516;52.272;5.136;2024-02-15T12:20:01;22.17;;;8.45;;
64199;SDS011;50516;52.272;5.136;2024-02-15T12:22:36;17.60;;;9.25;;
64199;SDS011;50516;52.272;5.136;2024-02-15T12:25:08;14.30;;;7.47;;
64199;SDS011;50516;52.272;5.136;2024-02-15T12:27:42;16.23;;;7.28;;
64199;SDS011;50516;52.272;5.136;2024-02-15T12:30:15;10.07;;;7.32;;
64199;SDS011;50516;52.272;5.136;2024-02-15T12:32:45;14.73;;;7.05;;
64199;SDS011;50516;52.272;5.136;2024-02-15T12:35:13;11.48;;;7.28;;
64199;SDS011;50516;52.272;5.136;2024-02-15T12:37:44;15.45;;;7.93;;
64199;SDS011;50516;52.272;5.136;2024-02-15T12:40:16;15.68;;;7.15;;
64199;SDS011;50516;52.272;5.136;2024-02-15T12:42:42;12.90;;;7.72;;
64199;SDS011;50516;52.272;5.136;2024-02-15T12:45:18;14.75;;;7.60;;
64199;SDS011;50516;52.272;5.136;2024-02-15T12:47:50;8.75;;;7.43;;
64199;SDS011;50516;52.272;5.136;2024-02-15T12:50:17;10.75;;;6.90;;
64199;SDS011;50516;52.272;5.136;2024-02-15T12:52:45;12.02;;;7.97;;
64199;SDS011;50516;52.272;5.136;2024-02-15T12:55:19;15.88;;;8.00;;
64199;SDS011;50516;52.272;5.136;2024-02-15T12:57:47;10.93;;;7.13;;
64199;SDS011;50516;52.272;5.136;2024-02-15T13:00:17;10.27;;;7.60;;
64199;SDS011;50516;52.272;5.136;2024-02-15T13:02:44;13.43;;;7.88;;
64199;SDS011;50516;52.272;5.136;2024-02-15T13:05:11;12.20;;;7.78;;
64199;SDS011;50516;52.272;5.136;2024-02-15T13:07:37;11.35;;;7.45;;
64199;SDS011;50516;52.272;5.136;2024-02-15T13:10:03;8.52;;;6.57;;
64199;SDS011;50516;52.272;5.136;2024-02-15T13:12:32;14.07;;;8.10;;
64199;SDS011;50516;52.272;5.136;2024-02-15T13:15:00;11.35;;;7.63;;
64199;SDS011;50516;52.272;5.136;2024-02-15T13:17:28;8.82;;;6.38;;
64199;SDS011;50516;52.272;5.136;2024-02-15T13:19:54;10.70;;;6.45;;
64199;SDS011;50516;52.272;5.136;2024-02-15T13:22:27;8.15;;;6.15;;
64199;SDS011;50516;52.272;5.136;2024-02-15T13:24:52;10.23;;;6.30;;
64199;SDS011;50516;52.272;5.136;2024-02-15T13:27:20;10.95;;;6.30;;
64199;SDS011;50516;52.272;5.136;2024-02-15T13:29:46;8.07;;;5.65;;
64199;SDS011;50516;52.272;5.136;2024-02-15T13:32:12;9.85;;;5.55;;
64199;SDS011;50516;52.272;5.136;2024-02-15T13:34:39;10.27;;;5.68;;
64199;SDS011;50516;52.272;5.136;2024-02-15T13:37:05;10.85;;;5.72;;
64199;SDS011;50516;52.272;5.136;2024-02-15T13:39:30;9.40;;;5.22;;
64199;SDS011;50516;52.272;5.136;2024-02-15T13:41:59;8.82;;;5.28;;
64199;SDS011;50516;52.272;5.136;2024-02-15T13:44:26;9.25;;;4.93;;
64199;SDS011;50516;52.272;5.136;2024-02-15T13:46:52;10.23;;;4.70;;
64199;SDS011;50516;52.272;5.136;2024-02-15T13:49:20;9.65;;;4.43;;
64199;SDS011;50516;52.272;5.136;2024-02-15T13:51:48;11.48;;;4.72;;
64199;SDS011;50516;52.272;5.136;2024-02-15T13:54:16;9.07;;;4.30;;
64199;SDS011;50516;52.272;5.136;2024-02-15T13:56:42;8.40;;;3.75;;
64199;SDS011;50516;52.272;5.136;2024-02-15T13:59:07;7.07;;;4.05;;
64199;SDS011;50516;52.272;5.136;2024-02-15T14:01:33;9.77;;;3.92;;
64199;SDS011;50516;52.272;5.136;2024-02-15T14:03:59;7.63;;;3.95;;
64199;SDS011;50516;52.272;5.136;2024-02-15T14:06:24;9.55;;;3.90;;
64199;SDS011;50516;52.272;5.136;2024-02-15T14:08:50;9.55;;;4.35;;
64199;SDS011;50516;52.272;5.136;2024-02-15T14:11:16;9.20;;;4.00;;
64199;SDS011;50516;52.272;5.136;2024-02-15T14:13:42;9.23;;;4.10;;
64199;SDS011;50516;52.272;5.136;2024-02-15T14:16:07;9.23;;;4.00;;
64199;SDS011;50516;52.272;5.136;2024-02-15T14:18:33;14.07;;;4.35;;
64199;SDS011;50516;52.272;5.136;2024-02-15T14:20:59;11.25;;;3.90;;
64199;SDS011;50516;52.272;5.136;2024-02-15T14:23:25;6.50;;;3.70;;
64199;SDS011;50516;52.272;5.136;2024-02-15T14:25:52;9.30;;;3.95;;
64199;SDS011;50516;52.272;5.136;2024-02-15T14:28:18;9.02;;;3.92;;
64199;SDS011;50516;52.272;5.136;2024-02-15T14:30:43;9.27;;;4.10;;
64199;SDS011;50516;52.272;5.136;2024-02-15T14:33:28;7.47;;;3.47;;
64199;SDS011;50516;52.272;5.136;2024-02-15T14:35:53;8.48;;;3.70;;
64199;SDS011;50516;52.272;5.136;2024-02-15T14:38:20;9.38;;;3.67;;
64199;SDS011;50516;52.272;5.136;2024-02-15T14:40:46;7.32;;;3.53;;
64199;SDS011;50516;52.272;5.136;2024-02-15T14:43:22;12.95;;;3.63;;
64199;SDS011;50516;52.272;5.136;2024-02-15T14:45:48;11.48;;;3.75;;
64199;SDS011;50516;52.272;5.136;2024-02-15T14:48:14;7.07;;;3.38;;
64199;SDS011;50516;52.272;5.136;2024-02-15T14:50:42;8.40;;;3.60;;